createdAt,value
2022-10-19T00:03:33.164Z,2.00
2022-10-19T00:08:38.019Z,2.60
2022-10-19T00:13:41.717Z,1.93
2022-10-19T00:18:46.676Z,2.33
2022-10-19T00:23:51.558Z,1.77
2022-10-19T00:28:55.557Z,1.80
2022-10-19T00:33:59.758Z,2.57
2022-10-19T00:39:06.711Z,2.03
2022-10-19T00:44:43.720Z,2.00
2022-10-19T00:49:47.953Z,2.50
2022-10-19T00:54:55.234Z,1.80
2022-10-19T01:00:00.829Z,1.50
2022-10-19T01:05:05.165Z,1.70
2022-10-19T01:10:11.107Z,2.37
2022-10-19T01:15:23.075Z,2.27
2022-10-19T01:21:09.676Z,2.13
2022-10-19T01:26:31.681Z,1.70
2022-10-19T01:31:42.901Z,1.90
2022-10-19T01:36:56.073Z,1.83
2022-10-19T01:42:07.273Z,2.00
2022-10-19T01:47:17.774Z,1.90
2022-10-19T01:52:22.719Z,1.50
2022-10-19T01:57:31.712Z,1.30
2022-10-19T02:02:39.639Z,2.07
2022-10-19T02:07:49.523Z,1.40
2022-10-19T02:12:56.230Z,1.83
2022-10-19T02:18:03.251Z,1.80
2022-10-19T02:23:07.422Z,1.30
2022-10-19T02:28:10.977Z,1.57
2022-10-19T02:33:16.325Z,1.37
2022-10-19T02:38:23.638Z,1.27
2022-10-19T02:43:29.882Z,1.10
2022-10-19T02:48:36.409Z,1.23
2022-10-19T02:53:39.890Z,1.60
2022-10-19T02:58:43.402Z,1.70
2022-10-19T03:03:48.508Z,1.27
2022-10-19T03:08:52.381Z,1.73
2022-10-19T03:13:55.862Z,1.60
2022-10-19T03:19:00.778Z,1.07
2022-10-19T03:24:04.369Z,1.00
2022-10-19T03:29:07.857Z,0.90
2022-10-19T03:34:12.702Z,1.10
2022-10-19T03:39:18.211Z,0.83
2022-10-19T03:44:21.728Z,0.90
2022-10-19T03:49:27.013Z,1.07
2022-10-19T03:54:30.514Z,0.80
2022-10-19T03:59:34.014Z,1.30
2022-10-19T04:04:38.990Z,1.33
2022-10-19T04:09:42.492Z,1.50
2022-10-19T04:14:56.911Z,1.40
2022-10-19T04:20:02.596Z,1.17
2022-10-19T04:25:07.527Z,1.30
2022-10-19T04:30:11.862Z,1.40
2022-10-19T04:35:16.899Z,1.10
2022-10-19T04:40:20.366Z,1.97
2022-10-19T04:45:23.912Z,1.40
2022-10-19T04:50:28.700Z,1.47
2022-10-19T04:55:32.309Z,1.63
2022-10-19T05:00:36.290Z,1.30
2022-10-19T05:05:41.214Z,1.20
2022-10-19T05:10:47.627Z,1.30
2022-10-19T05:15:57.675Z,1.40
2022-10-19T05:21:07.679Z,1.50
2022-10-19T05:26:13.687Z,1.20
2022-10-19T05:31:18.457Z,1.10
2022-10-19T05:36:26.031Z,1.27
2022-10-19T05:41:29.578Z,1.30
2022-10-19T05:46:34.397Z,1.20
2022-10-19T05:51:39.687Z,1.30
2022-10-19T05:56:43.708Z,1.50
2022-10-19T06:01:48.088Z,1.37
2022-10-19T06:06:53.040Z,1.50
2022-10-19T06:11:56.554Z,1.20
2022-10-19T06:17:00.070Z,1.40
2022-10-19T06:22:04.913Z,1.37
2022-10-19T06:27:08.511Z,1.30
2022-10-19T06:32:12.060Z,1.10
2022-10-19T06:37:16.947Z,1.50
2022-10-19T06:42:20.491Z,0.83
2022-10-19T06:47:28.177Z,1.40
2022-10-19T06:52:33.842Z,1.50
2022-10-19T06:57:37.771Z,1.90
2022-10-19T07:02:41.464Z,1.50
2022-10-19T07:07:46.610Z,1.27
2022-10-19T07:12:50.231Z,1.07
2022-10-19T07:17:54.377Z,1.13
2022-10-19T07:22:59.240Z,2.13
2022-10-19T07:28:02.836Z,2.27
2022-10-19T07:33:06.770Z,1.60
2022-10-19T07:38:11.784Z,1.90
2022-10-19T07:43:15.821Z,2.10
2022-10-19T07:48:19.345Z,1.87
2022-10-19T07:53:24.407Z,1.63
2022-10-19T07:58:27.990Z,1.60
2022-10-19T08:04:14.232Z,1.80
2022-10-19T08:08:57.330Z,1.70
2022-10-19T08:14:02.940Z,1.53
2022-10-19T08:19:08.266Z,1.90
2022-10-19T08:24:15.483Z,1.93
2022-10-19T08:29:21.159Z,1.50
2022-10-19T08:34:25.213Z,1.30
2022-10-19T08:39:30.540Z,1.13
2022-10-19T08:45:12.329Z,1.33
2022-10-19T08:50:22.492Z,1.20
2022-10-19T08:55:38.052Z,1.40
2022-10-19T09:00:44.326Z,1.10
2022-10-19T09:05:54.644Z,1.30
2022-10-19T09:11:00.835Z,1.10
2022-10-19T09:16:05.246Z,1.40
2022-10-19T09:21:15.620Z,1.00
2022-10-19T09:26:24.800Z,1.10
2022-10-19T09:31:32.429Z,1.00
2022-10-19T09:36:56.622Z,0.90
2022-10-19T09:42:08.588Z,1.10
2022-10-19T09:47:36.428Z,1.10
2022-10-19T09:52:41.373Z,1.17
2022-10-19T09:57:47.501Z,0.70
2022-10-19T10:02:52.492Z,0.63
2022-10-19T10:07:56.705Z,1.07
2022-10-19T10:13:02.555Z,1.20
2022-10-19T10:18:06.260Z,1.03
2022-10-19T10:23:25.233Z,1.40
2022-10-19T10:28:31.361Z,1.07
2022-10-19T10:33:45.064Z,1.07
2022-10-19T10:38:52.983Z,0.90
2022-10-19T10:44:04.505Z,0.90
2022-10-19T10:49:18.160Z,1.10
2022-10-19T10:54:22.881Z,0.93
2022-10-19T10:59:32.412Z,1.10
2022-10-19T11:04:40.802Z,0.87
2022-10-19T11:09:47.572Z,0.80
2022-10-19T11:15:02.749Z,0.90
2022-10-19T11:20:08.575Z,0.80
2022-10-19T11:25:26.143Z,0.90
2022-10-19T11:30:42.797Z,0.60
2022-10-19T11:35:52.905Z,0.93
2022-10-19T11:41:17.438Z,0.80
2022-10-19T11:46:33.630Z,0.60
2022-10-19T11:51:44.921Z,0.90
2022-10-19T11:57:11.354Z,0.83
2022-10-19T12:02:42.892Z,0.93
2022-10-19T12:08:12.241Z,0.67
2022-10-19T12:13:28.031Z,1.00
2022-10-19T12:18:37.703Z,0.83
2022-10-19T12:23:44.837Z,0.93
2022-10-19T12:28:51.376Z,0.80
2022-10-19T12:34:04.002Z,0.93
2022-10-19T12:39:16.888Z,0.87
2022-10-19T12:44:56.330Z,0.87
2022-10-19T12:50:03.540Z,1.10
2022-10-19T12:55:30.426Z,1.27
2022-10-19T13:00:36.512Z,1.23
2022-10-19T13:05:41.664Z,1.10
2022-10-19T13:11:04.980Z,1.00
2022-10-19T13:16:33.845Z,0.97
2022-10-19T13:21:51.364Z,1.03
2022-10-19T13:27:26.082Z,1.10
2022-10-19T13:32:36.183Z,1.30
2022-10-19T13:37:41.338Z,1.20
2022-10-19T13:42:45.035Z,1.27
2022-10-19T13:47:54.899Z,1.00
2022-10-19T13:53:22.853Z,1.10
2022-10-19T13:59:14.203Z,1.10
2022-10-19T14:04:22.510Z,0.97
2022-10-19T14:09:51.113Z,1.00
2022-10-19T14:14:55.106Z,1.10
2022-10-19T14:20:00.043Z,0.80
2022-10-19T14:25:08.058Z,0.80
2022-10-19T14:30:23.554Z,0.83
2022-10-19T14:35:30.320Z,0.80
2022-10-19T14:40:39.163Z,0.60
2022-10-19T14:45:42.716Z,0.57
2022-10-19T14:50:50.493Z,0.70
2022-10-19T14:55:59.240Z,0.77
2022-10-19T15:01:02.825Z,0.77
2022-10-19T15:06:07.945Z,0.63
2022-10-19T15:11:26.329Z,0.70
2022-10-19T15:16:35.920Z,0.43
2022-10-19T15:21:39.462Z,0.60
2022-10-19T15:27:06.524Z,1.17
2022-10-19T15:32:16.816Z,0.70
2022-10-19T15:37:23.712Z,0.70
2022-10-19T15:42:38.207Z,0.70
2022-10-19T15:48:18.357Z,0.80
2022-10-19T15:53:22.793Z,0.60
2022-10-19T15:58:27.668Z,1.60
2022-10-19T16:03:31.142Z,1.03
2022-10-19T16:08:34.681Z,0.70
2022-10-19T16:13:39.578Z,0.90
2022-10-19T16:18:43.093Z,0.80
2022-10-19T16:23:46.657Z,1.40
2022-10-19T16:28:51.623Z,1.23
2022-10-19T16:33:55.221Z,1.23
2022-10-19T16:39:01.115Z,1.13
2022-10-19T16:44:06.134Z,1.13
2022-10-19T16:49:09.685Z,1.43
2022-10-19T16:54:13.213Z,1.13
2022-10-19T16:59:19.384Z,1.53
2022-10-19T17:04:23.263Z,1.57
2022-10-19T17:09:43.062Z,1.40
2022-10-19T17:14:48.499Z,1.07
2022-10-19T17:19:51.980Z,1.30
2022-10-19T17:24:56.570Z,1.20
2022-10-19T17:30:02.976Z,1.33
2022-10-19T17:35:07.449Z,1.30
2022-10-19T17:40:11.895Z,0.97
2022-10-19T17:45:16.828Z,1.30
2022-10-19T17:50:20.424Z,1.07
2022-10-19T17:55:23.926Z,1.00
2022-10-19T18:00:28.880Z,0.77
2022-10-19T18:05:32.407Z,1.00
2022-10-19T18:10:37.852Z,1.23
2022-10-19T18:15:42.755Z,0.90
2022-10-19T18:20:46.600Z,1.53
2022-10-19T18:25:54.328Z,1.20
2022-10-19T18:31:06.337Z,1.20
2022-10-19T18:36:11.504Z,1.07
2022-10-19T18:41:15.053Z,1.03
2022-10-19T18:46:21.023Z,0.90
2022-10-19T18:51:25.136Z,0.87
2022-10-19T18:56:29.331Z,0.70
2022-10-19T19:01:34.337Z,0.70
2022-10-19T19:06:38.709Z,0.80
2022-10-19T19:11:42.396Z,1.07
2022-10-19T19:16:48.361Z,0.90
2022-10-19T19:21:51.842Z,1.13
2022-10-19T19:26:55.868Z,0.80
2022-10-19T19:32:00.776Z,0.80
2022-10-19T19:37:08.784Z,1.20
2022-10-19T19:42:13.997Z,1.30
2022-10-19T19:47:19.741Z,1.10
2022-10-19T19:52:23.300Z,0.93
2022-10-19T19:57:26.826Z,0.80
2022-10-19T20:02:37.050Z,0.70
2022-10-19T20:07:40.564Z,1.00
2022-10-19T20:12:44.185Z,0.97
2022-10-19T20:17:49.045Z,1.03
2022-10-19T20:22:52.552Z,1.17
2022-10-19T20:27:56.049Z,1.23
2022-10-19T20:33:00.933Z,0.90
2022-10-19T20:38:04.816Z,0.90
2022-10-19T20:43:08.328Z,1.07
2022-10-19T20:48:13.253Z,1.33
2022-10-19T20:53:16.807Z,1.30
2022-10-19T20:58:20.274Z,1.13
2022-10-19T21:03:25.181Z,1.40
2022-10-19T21:08:28.704Z,1.17
2022-10-19T21:13:32.214Z,1.20
2022-10-19T21:18:37.086Z,1.27
2022-10-19T21:23:41.099Z,1.67
2022-10-19T21:28:48.202Z,1.33
2022-10-19T21:33:54.102Z,1.10
2022-10-19T21:38:58.120Z,1.40
2022-10-19T21:44:01.839Z,1.67
2022-10-19T21:49:06.781Z,1.73
2022-10-19T21:54:13.717Z,1.70
2022-10-19T21:59:17.312Z,1.77
2022-10-19T22:04:22.611Z,1.70
2022-10-19T22:09:26.144Z,1.23
2022-10-19T22:14:29.642Z,1.60
2022-10-19T22:19:34.574Z,1.60
2022-10-19T22:24:38.185Z,1.90
2022-10-19T22:29:41.922Z,1.70
2022-10-19T22:34:46.983Z,1.27
2022-10-19T22:39:50.496Z,1.77
2022-10-19T22:44:54.033Z,2.00
2022-10-19T22:49:58.870Z,1.63
2022-10-19T22:55:02.592Z,1.70
2022-10-19T23:00:06.941Z,1.80
2022-10-19T23:05:12.451Z,2.00
2022-10-19T23:10:16.150Z,2.00
2022-10-19T23:15:20.350Z,1.70
2022-10-19T23:20:25.228Z,1.77
2022-10-19T23:25:28.716Z,2.00
2022-10-19T23:30:32.166Z,2.60
2022-10-19T23:35:36.961Z,2.70
2022-10-19T23:40:40.413Z,1.93
2022-10-19T23:45:46.158Z,1.87
2022-10-19T23:50:59.618Z,2.30
2022-10-19T23:56:05.236Z,2.00
